sensor_id;sensor_type;location;lat;lon;timestamp;P1;durP1;ratioP1;P2;durP2;ratioP2
9522;SDS011;63165;43.016;25.784;2023-04-24T00:02:03;24.77;;;8.43;;
9522;SDS011;63165;43.016;25.784;2023-04-24T00:04:33;18.25;;;7.40;;
9522;SDS011;63165;43.016;25.784;2023-04-24T00:07:00;19.35;;;7.80;;
9522;SDS011;63165;43.016;25.784;2023-04-24T00:09:28;20.33;;;7.32;;
9522;SDS011;63165;43.016;25.784;2023-04-24T00:11:55;22.35;;;7.82;;
9522;SDS011;63165;43.016;25.784;2023-04-24T00:14:22;25.00;;;7.68;;
9522;SDS011;63165;43.016;25.784;2023-04-24T00:16:51;18.48;;;6.40;;
9522;SDS011;63165;43.016;25.784;2023-04-24T00:19:18;20.45;;;7.32;;
9522;SDS011;63165;43.016;25.784;2023-04-24T00:21:47;16.92;;;6.85;;
9522;SDS011;63165;43.016;25.784;2023-04-24T00:24:16;18.10;;;7.32;;
9522;SDS011;63165;43.016;25.784;2023-04-24T00:26:43;19.58;;;7.50;;
9522;SDS011;63165;43.016;25.784;2023-04-24T00:29:10;20.50;;;7.22;;
9522;SDS011;63165;43.016;25.784;2023-04-24T00:31:38;26.52;;;8.10;;
9522;SDS011;63165;43.016;25.784;2023-04-24T00:34:07;30.40;;;7.80;;
9522;SDS011;63165;43.016;25.784;2023-04-24T00:36:34;22.65;;;7.47;;
9522;SDS011;63165;43.016;25.784;2023-04-24T00:39:01;23.13;;;7.22;;
9522;SDS011;63165;43.016;25.784;2023-04-24T00:41:28;20.45;;;7.00;;
9522;SDS011;63165;43.016;25.784;2023-04-24T00:43:56;22.65;;;7.45;;
9522;SDS011;63165;43.016;25.784;2023-04-24T00:46:24;22.33;;;7.40;;
9522;SDS011;63165;43.016;25.784;2023-04-24T00:48:51;17.45;;;6.45;;
9522;SDS011;63165;43.016;25.784;2023-04-24T00:51:20;15.55;;;6.40;;
9522;SDS011;63165;43.016;25.784;2023-04-24T00:53:49;20.05;;;6.88;;
9522;SDS011;63165;43.016;25.784;2023-04-24T00:56:17;15.75;;;5.85;;
9522;SDS011;63165;43.016;25.784;2023-04-24T00:58:45;18.88;;;6.55;;
9522;SDS011;63165;43.016;25.784;2023-04-24T01:01:13;18.08;;;6.00;;
9522;SDS011;63165;43.016;25.784;2023-04-24T01:03:41;16.13;;;5.57;;
9522;SDS011;63165;43.016;25.784;2023-04-24T01:06:09;15.15;;;5.65;;
9522;SDS011;63165;43.016;25.784;2023-04-24T01:08:38;17.33;;;5.95;;
9522;SDS011;63165;43.016;25.784;2023-04-24T01:11:07;14.82;;;5.68;;
9522;SDS011;63165;43.016;25.784;2023-04-24T01:13:35;16.30;;;6.28;;
9522;SDS011;63165;43.016;25.784;2023-04-24T01:16:02;16.55;;;5.50;;
9522;SDS011;63165;43.016;25.784;2023-04-24T01:18:29;14.60;;;5.32;;
9522;SDS011;63165;43.016;25.784;2023-04-24T01:20:58;16.17;;;5.38;;
9522;SDS011;63165;43.016;25.784;2023-04-24T01:23:28;15.13;;;5.53;;
9522;SDS011;63165;43.016;25.784;2023-04-24T01:25:55;13.43;;;5.45;;
9522;SDS011;63165;43.016;25.784;2023-04-24T01:28:23;18.38;;;5.80;;
9522;SDS011;63165;43.016;25.784;2023-04-24T01:30:50;13.82;;;5.55;;
9522;SDS011;63165;43.016;25.784;2023-04-24T01:33:18;15.90;;;5.93;;
9522;SDS011;63165;43.016;25.784;2023-04-24T01:35:47;15.48;;;5.72;;
9522;SDS011;63165;43.016;25.784;2023-04-24T01:38:15;11.35;;;4.78;;
9522;SDS011;63165;43.016;25.784;2023-04-24T01:40:44;13.45;;;5.53;;
9522;SDS011;63165;43.016;25.784;2023-04-24T01:43:11;14.38;;;5.45;;
9522;SDS011;63165;43.016;25.784;2023-04-24T01:45:39;16.70;;;6.18;;
9522;SDS011;63165;43.016;25.784;2023-04-24T01:48:06;15.95;;;5.85;;
9522;SDS011;63165;43.016;25.784;2023-04-24T01:50:34;20.83;;;6.40;;
9522;SDS011;63165;43.016;25.784;2023-04-24T01:53:01;17.90;;;5.55;;
9522;SDS011;63165;43.016;25.784;2023-04-24T01:55:28;15.40;;;6.63;;
9522;SDS011;63165;43.016;25.784;2023-04-24T01:57:57;13.85;;;5.80;;
9522;SDS011;63165;43.016;25.784;2023-04-24T02:00:27;15.65;;;6.32;;
9522;SDS011;63165;43.016;25.784;2023-04-24T02:02:54;16.63;;;6.47;;
9522;SDS011;63165;43.016;25.784;2023-04-24T02:05:21;17.38;;;7.03;;
9522;SDS011;63165;43.016;25.784;2023-04-24T02:07:49;20.13;;;6.32;;
9522;SDS011;63165;43.016;25.784;2023-04-24T02:10:16;16.77;;;6.85;;
9522;SDS011;63165;43.016;25.784;2023-04-24T02:12:43;18.67;;;7.50;;
9522;SDS011;63165;43.016;25.784;2023-04-24T02:15:12;20.60;;;8.15;;
9522;SDS011;63165;43.016;25.784;2023-04-24T02:17:40;18.60;;;7.03;;
9522;SDS011;63165;43.016;25.784;2023-04-24T02:20:07;24.58;;;6.57;;
9522;SDS011;63165;43.016;25.784;2023-04-24T02:22:35;18.45;;;7.35;;
9522;SDS011;63165;43.016;25.784;2023-04-24T02:25:02;15.65;;;6.60;;
9522;SDS011;63165;43.016;25.784;2023-04-24T02:27:30;13.13;;;6.30;;
9522;SDS011;63165;43.016;25.784;2023-04-24T02:29:57;20.23;;;6.72;;
9522;SDS011;63165;43.016;25.784;2023-04-24T02:32:26;18.88;;;7.63;;
9522;SDS011;63165;43.016;25.784;2023-04-24T02:34:53;25.13;;;7.38;;
9522;SDS011;63165;43.016;25.784;2023-04-24T02:37:21;19.20;;;6.82;;
9522;SDS011;63165;43.016;25.784;2023-04-24T02:39:48;38.70;;;15.55;;
9522;SDS011;63165;43.016;25.784;2023-04-24T02:42:15;22.67;;;9.40;;
9522;SDS011;63165;43.016;25.784;2023-04-24T02:44:43;17.83;;;7.22;;
9522;SDS011;63165;43.016;25.784;2023-04-24T02:47:10;20.80;;;7.68;;
9522;SDS011;63165;43.016;25.784;2023-04-24T02:49:39;18.17;;;6.82;;
9522;SDS011;63165;43.016;25.784;2023-04-24T02:52:09;20.70;;;7.43;;
9522;SDS011;63165;43.016;25.784;2023-04-24T02:54:37;26.90;;;8.45;;
9522;SDS011;63165;43.016;25.784;2023-04-24T02:57:05;18.45;;;8.10;;
9522;SDS011;63165;43.016;25.784;2023-04-24T02:59:36;21.20;;;8.60;;
9522;SDS011;63165;43.016;25.784;2023-04-24T03:02:04;19.60;;;7.57;;
9522;SDS011;63165;43.016;25.784;2023-04-24T03:04:31;20.65;;;8.05;;
9522;SDS011;63165;43.016;25.784;2023-04-24T03:07:01;19.15;;;6.88;;
9522;SDS011;63165;43.016;25.784;2023-04-24T03:09:29;20.35;;;6.43;;
9522;SDS011;63165;43.016;25.784;2023-04-24T03:11:57;15.02;;;6.85;;
9522;SDS011;63165;43.016;25.784;2023-04-24T03:14:25;20.92;;;6.25;;
9522;SDS011;63165;43.016;25.784;2023-04-24T03:16:56;14.77;;;5.88;;
9522;SDS011;63165;43.016;25.784;2023-04-24T03:19:25;16.23;;;5.93;;
9522;SDS011;63165;43.016;25.784;2023-04-24T03:21:52;18.13;;;6.97;;
9522;SDS011;63165;43.016;25.784;2023-04-24T03:24:21;14.65;;;6.78;;
9522;SDS011;63165;43.016;25.784;2023-04-24T03:26:49;19.95;;;6.43;;
9522;SDS011;63165;43.016;25.784;2023-04-24T03:29:16;17.92;;;6.18;;
9522;SDS011;63165;43.016;25.784;2023-04-24T03:31:43;19.33;;;6.30;;
9522;SDS011;63165;43.016;25.784;2023-04-24T03:34:11;16.42;;;6.30;;
9522;SDS011;63165;43.016;25.784;2023-04-24T03:36:38;18.55;;;6.25;;
9522;SDS011;63165;43.016;25.784;2023-04-24T03:39:06;21.55;;;6.80;;
9522;SDS011;63165;43.016;25.784;2023-04-24T03:41:36;15.73;;;6.63;;
9522;SDS011;63165;43.016;25.784;2023-04-24T03:44:03;25.20;;;7.70;;
9522;SDS011;63165;43.016;25.784;2023-04-24T03:46:31;20.02;;;6.93;;
9522;SDS011;63165;43.016;25.784;2023-04-24T03:48:59;21.48;;;7.18;;
9522;SDS011;63165;43.016;25.784;2023-04-24T03:51:32;17.65;;;7.25;;
9522;SDS011;63165;43.016;25.784;2023-04-24T03:54:00;18.38;;;7.68;;
9522;SDS011;63165;43.016;25.784;2023-04-24T03:56:28;21.63;;;8.68;;
9522;SDS011;63165;43.016;25.784;2023-04-24T03:58:58;29.52;;;10.02;;
9522;SDS011;63165;43.016;25.784;2023-04-24T04:01:26;32.67;;;9.52;;
9522;SDS011;63165;43.016;25.784;2023-04-24T04:03:56;28.65;;;10.32;;
9522;SDS011;63165;43.016;25.784;2023-04-24T04:06:27;26.45;;;9.10;;
9522;SDS011;63165;43.016;25.784;2023-04-24T04:09:07;26.25;;;10.30;;
9522;SDS011;63165;43.016;25.784;2023-04-24T04:11:36;19.92;;;9.25;;
9522;SDS011;63165;43.016;25.784;2023-04-24T04:14:20;22.58;;;10.80;;
9522;SDS011;63165;43.016;25.784;2023-04-24T04:16:57;35.65;;;14.65;;
9522;SDS011;63165;43.016;25.784;2023-04-24T04:19:27;376.17;;;99.57;;
9522;SDS011;63165;43.016;25.784;2023-04-24T04:21:57;282.40;;;78.03;;
9522;SDS011;63165;43.016;25.784;2023-04-24T04:24:24;239.15;;;72.28;;
9522;SDS011;63165;43.016;25.784;2023-04-24T04:26:52;52.97;;;17.40;;
9522;SDS011;63165;43.016;25.784;2023-04-24T04:29:25;44.88;;;13.15;;
9522;SDS011;63165;43.016;25.784;2023-04-24T04:31:53;42.75;;;13.88;;
9522;SDS011;63165;43.016;25.784;2023-04-24T04:34:20;36.67;;;13.25;;
9522;SDS011;63165;43.016;25.784;2023-04-24T04:36:48;45.33;;;13.82;;
9522;SDS011;63165;43.016;25.784;2023-04-24T04:39:16;29.33;;;11.25;;
9522;SDS011;63165;43.016;25.784;2023-04-24T04:41:43;32.25;;;11.25;;
9522;SDS011;63165;43.016;25.784;2023-04-24T04:44:14;35.15;;;12.63;;
9522;SDS011;63165;43.016;25.784;2023-04-24T04:46:42;30.85;;;12.25;;
9522;SDS011;63165;43.016;25.784;2023-04-24T04:49:10;34.22;;;12.65;;
9522;SDS011;63165;43.016;25.784;2023-04-24T04:51:37;27.40;;;10.73;;
9522;SDS011;63165;43.016;25.784;2023-04-24T04:54:04;32.53;;;10.73;;
9522;SDS011;63165;43.016;25.784;2023-04-24T04:56:32;32.88;;;10.90;;
9522;SDS011;63165;43.016;25.784;2023-04-24T04:58:59;31.60;;;10.43;;
9522;SDS011;63165;43.016;25.784;2023-04-24T05:01:26;34.63;;;11.07;;
9522;SDS011;63165;43.016;25.784;2023-04-24T05:03:55;23.45;;;8.40;;
9522;SDS011;63165;43.016;25.784;2023-04-24T05:06:22;29.98;;;10.70;;
9522;SDS011;63165;43.016;25.784;2023-04-24T05:08:50;35.95;;;10.25;;
9522;SDS011;63165;43.016;25.784;2023-04-24T05:11:21;96.95;;;27.55;;
9522;SDS011;63165;43.016;25.784;2023-04-24T05:13:48;35.00;;;12.63;;
9522;SDS011;63165;43.016;25.784;2023-04-24T05:16:15;32.15;;;11.20;;
9522;SDS011;63165;43.016;25.784;2023-04-24T05:18:42;190.23;;;53.30;;
9522;SDS011;63165;43.016;25.784;2023-04-24T05:21:11;198.90;;;53.63;;
9522;SDS011;63165;43.016;25.784;2023-04-24T05:23:38;154.20;;;45.33;;
9522;SDS011;63165;43.016;25.784;2023-04-24T05:26:05;102.93;;;27.67;;
9522;SDS011;63165;43.016;25.784;2023-04-24T05:28:33;75.05;;;23.63;;
9522;SDS011;63165;43.016;25.784;2023-04-24T05:31:01;43.95;;;16.15;;
9522;SDS011;63165;43.016;25.784;2023-04-24T05:33:29;41.45;;;12.55;;
9522;SDS011;63165;43.016;25.784;2023-04-24T05:35:56;43.28;;;12.93;;
9522;SDS011;63165;43.016;25.784;2023-04-24T05:38:25;30.60;;;10.60;;
9522;SDS011;63165;43.016;25.784;2023-04-24T05:40:52;33.80;;;12.05;;
9522;SDS011;63165;43.016;25.784;2023-04-24T05:43:19;39.85;;;11.50;;
9522;SDS011;63165;43.016;25.784;2023-04-24T05:45:47;23.25;;;8.60;;
9522;SDS011;63165;43.016;25.784;2023-04-24T05:48:14;23.92;;;8.05;;
9522;SDS011;63165;43.016;25.784;2023-04-24T05:50:41;17.17;;;7.10;;
9522;SDS011;63165;43.016;25.784;2023-04-24T05:53:08;15.93;;;6.35;;
9522;SDS011;63165;43.016;25.784;2023-04-24T05:55:37;17.75;;;6.32;;
9522;SDS011;63165;43.016;25.784;2023-04-24T05:58:04;18.88;;;5.97;;
9522;SDS011;63165;43.016;25.784;2023-04-24T06:00:32;13.88;;;5.63;;
9522;SDS011;63165;43.016;25.784;2023-04-24T06:02:59;16.00;;;5.93;;
9522;SDS011;63165;43.016;25.784;2023-04-24T06:05:28;16.27;;;5.72;;
9522;SDS011;63165;43.016;25.784;2023-04-24T06:07:56;16.58;;;5.35;;
9522;SDS011;63165;43.016;25.784;2023-04-24T06:10:23;17.42;;;5.88;;
9522;SDS011;63165;43.016;25.784;2023-04-24T06:12:52;13.43;;;5.18;;
9522;SDS011;63165;43.016;25.784;2023-04-24T06:15:21;18.30;;;5.68;;
9522;SDS011;63165;43.016;25.784;2023-04-24T06:17:48;16.30;;;5.00;;
9522;SDS011;63165;43.016;25.784;2023-04-24T06:20:16;13.07;;;5.20;;
9522;SDS011;63165;43.016;25.784;2023-04-24T06:22:43;15.15;;;5.30;;
9522;SDS011;63165;43.016;25.784;2023-04-24T06:25:10;15.38;;;5.45;;
9522;SDS011;63165;43.016;25.784;2023-04-24T06:27:37;12.55;;;4.93;;
9522;SDS011;63165;43.016;25.784;2023-04-24T06:30:08;20.73;;;6.03;;
9522;SDS011;63165;43.016;25.784;2023-04-24T06:32:36;10.63;;;4.82;;
9522;SDS011;63165;43.016;25.784;2023-04-24T06:35:03;14.68;;;4.85;;
9522;SDS011;63165;43.016;25.784;2023-04-24T06:37:32;12.80;;;4.90;;
9522;SDS011;63165;43.016;25.784;2023-04-24T06:39:59;13.63;;;5.53;;
9522;SDS011;63165;43.016;25.784;2023-04-24T06:42:27;15.43;;;5.82;;
9522;SDS011;63165;43.016;25.784;2023-04-24T06:44:54;11.02;;;4.50;;
9522;SDS011;63165;43.016;25.784;2023-04-24T06:47:22;13.23;;;5.57;;
9522;SDS011;63165;43.016;25.784;2023-04-24T06:49:50;16.98;;;5.07;;
9522;SDS011;63165;43.016;25.784;2023-04-24T06:52:17;18.17;;;4.97;;
9522;SDS011;63165;43.016;25.784;2023-04-24T06:54:45;16.63;;;4.65;;
9522;SDS011;63165;43.016;25.784;2023-04-24T06:57:12;12.32;;;4.90;;
9522;SDS011;63165;43.016;25.784;2023-04-24T06:59:41;10.18;;;4.25;;
9522;SDS011;63165;43.016;25.784;2023-04-24T07:02:08;17.40;;;4.30;;
9522;SDS011;63165;43.016;25.784;2023-04-24T07:04:37;11.30;;;4.53;;
9522;SDS011;63165;43.016;25.784;2023-04-24T07:07:05;14.60;;;4.82;;
9522;SDS011;63165;43.016;25.784;2023-04-24T07:09:33;13.00;;;5.75;;
9522;SDS011;63165;43.016;25.784;2023-04-24T07:12:03;14.93;;;4.85;;
9522;SDS011;63165;43.016;25.784;2023-04-24T07:14:31;17.20;;;5.45;;
9522;SDS011;63165;43.016;25.784;2023-04-24T07:16:58;15.45;;;5.05;;
9522;SDS011;63165;43.016;25.784;2023-04-24T07:19:26;14.65;;;4.18;;
9522;SDS011;63165;43.016;25.784;2023-04-24T07:21:55;17.48;;;4.65;;
9522;SDS011;63165;43.016;25.784;2023-04-24T07:24:23;14.35;;;4.40;;
9522;SDS011;63165;43.016;25.784;2023-04-24T07:26:50;13.57;;;4.47;;
9522;SDS011;63165;43.016;25.784;2023-04-24T07:29:18;12.13;;;4.35;;
9522;SDS011;63165;43.016;25.784;2023-04-24T07:31:46;12.00;;;3.90;;
9522;SDS011;63165;43.016;25.784;2023-04-24T07:34:13;14.60;;;4.45;;
9522;SDS011;63165;43.016;25.784;2023-04-24T07:36:40;12.75;;;4.45;;
9522;SDS011;63165;43.016;25.784;2023-04-24T07:39:09;9.95;;;4.35;;
9522;SDS011;63165;43.016;25.784;2023-04-24T07:41:36;11.75;;;5.20;;
9522;SDS011;63165;43.016;25.784;2023-04-24T07:44:04;12.80;;;4.38;;
9522;SDS011;63165;43.016;25.784;2023-04-24T07:46:31;12.25;;;4.30;;
9522;SDS011;63165;43.016;25.784;2023-04-24T07:48:59;17.60;;;4.53;;
9522;SDS011;63165;43.016;25.784;2023-04-24T07:51:26;8.15;;;4.22;;
9522;SDS011;63165;43.016;25.784;2023-04-24T07:53:54;16.88;;;5.30;;
9522;SDS011;63165;43.016;25.784;2023-04-24T07:56:22;13.85;;;4.40;;
9522;SDS011;63165;43.016;25.784;2023-04-24T07:58:50;33.88;;;5.68;;
9522;SDS011;63165;43.016;25.784;2023-04-24T08:01:17;11.32;;;4.22;;
9522;SDS011;63165;43.016;25.784;2023-04-24T08:03:44;11.13;;;4.13;;
9522;SDS011;63165;43.016;25.784;2023-04-24T08:06:12;10.88;;;4.00;;
9522;SDS011;63165;43.016;25.784;2023-04-24T08:08:39;15.25;;;3.78;;
9522;SDS011;63165;43.016;25.784;2023-04-24T08:11:06;8.70;;;3.65;;
9522;SDS011;63165;43.016;25.784;2023-04-24T08:13:35;9.77;;;3.70;;
9522;SDS011;63165;43.016;25.784;2023-04-24T08:16:02;9.05;;;4.35;;
9522;SDS011;63165;43.016;25.784;2023-04-24T08:18:29;12.00;;;4.28;;
9522;SDS011;63165;43.016;25.784;2023-04-24T08:20:56;9.85;;;5.28;;
9522;SDS011;63165;43.016;25.784;2023-04-24T08:23:26;9.30;;;3.40;;
9522;SDS011;63165;43.016;25.784;2023-04-24T08:25:54;6.43;;;3.50;;
9522;SDS011;63165;43.016;25.784;2023-04-24T08:28:22;14.60;;;5.40;;
9522;SDS011;63165;43.016;25.784;2023-04-24T08:30:51;9.95;;;3.90;;
9522;SDS011;63165;43.016;25.784;2023-04-24T08:33:19;14.15;;;5.50;;
9522;SDS011;63165;43.016;25.784;2023-04-24T08:35:47;12.98;;;4.07;;
9522;SDS011;63165;43.016;25.784;2023-04-24T08:38:15;7.43;;;3.92;;
9522;SDS011;63165;43.016;25.784;2023-04-24T08:40:43;16.70;;;4.32;;
9522;SDS011;63165;43.016;25.784;2023-04-24T08:43:13;12.30;;;4.07;;
9522;SDS011;63165;43.016;25.784;2023-04-24T08:45:41;11.38;;;4.60;;
9522;SDS011;63165;43.016;25.784;2023-04-24T08:48:09;7.18;;;3.88;;
9522;SDS011;63165;43.016;25.784;2023-04-24T08:50:38;10.35;;;3.70;;
9522;SDS011;63165;43.016;25.784;2023-04-24T08:53:07;14.45;;;3.78;;
9522;SDS011;63165;43.016;25.784;2023-04-24T08:55:35;9.85;;;3.53;;
9522;SDS011;63165;43.016;25.784;2023-04-24T08:58:04;7.68;;;3.75;;
9522;SDS011;63165;43.016;25.784;2023-04-24T09:00:32;22.45;;;4.18;;
9522;SDS011;63165;43.016;25.784;2023-04-24T09:03:00;7.07;;;3.75;;
9522;SDS011;63165;43.016;25.784;2023-04-24T09:05:30;14.52;;;4.55;;
9522;SDS011;63165;43.016;25.784;2023-04-24T09:07:58;11.23;;;4.20;;
9522;SDS011;63165;43.016;25.784;2023-04-24T09:10:28;10.10;;;4.15;;
9522;SDS011;63165;43.016;25.784;2023-04-24T09:12:56;13.80;;;4.35;;
9522;SDS011;63165;43.016;25.784;2023-04-24T09:15:27;16.63;;;4.97;;
9522;SDS011;63165;43.016;25.784;2023-04-24T09:17:54;20.13;;;4.70;;
9522;SDS011;63165;43.016;25.784;2023-04-24T09:20:22;10.48;;;5.10;;
9522;SDS011;63165;43.016;25.784;2023-04-24T09:22:52;20.10;;;7.32;;
9522;SDS011;63165;43.016;25.784;2023-04-24T09:25:20;22.15;;;7.07;;
9522;SDS011;63165;43.016;25.784;2023-04-24T09:27:48;10.05;;;4.45;;
9522;SDS011;63165;43.016;25.784;2023-04-24T09:30:15;19.13;;;6.57;;
9522;SDS011;63165;43.016;25.784;2023-04-24T09:35:16;14.40;;;4.85;;
9522;SDS011;63165;43.016;25.784;2023-04-24T09:37:43;13.48;;;4.22;;
9522;SDS011;63165;43.016;25.784;2023-04-24T09:40:16;11.23;;;4.10;;
9522;SDS011;63165;43.016;25.784;2023-04-24T09:42:44;10.90;;;4.35;;
9522;SDS011;63165;43.016;25.784;2023-04-24T09:45:12;14.57;;;4.28;;
9522;SDS011;63165;43.016;25.784;2023-04-24T09:47:40;9.82;;;3.88;;
9522;SDS011;63165;43.016;25.784;2023-04-24T09:50:12;12.70;;;4.45;;
9522;SDS011;63165;43.016;25.784;2023-04-24T09:52:40;10.23;;;4.38;;
9522;SDS011;63165;43.016;25.784;2023-04-24T09:55:13;9.98;;;4.28;;
9522;SDS011;63165;43.016;25.784;2023-04-24T09:57:54;12.10;;;4.53;;
9522;SDS011;63165;43.016;25.784;2023-04-24T10:00:22;13.23;;;4.85;;
9522;SDS011;63165;43.016;25.784;2023-04-24T10:02:51;9.27;;;4.18;;
9522;SDS011;63165;43.016;25.784;2023-04-24T10:05:23;10.30;;;4.22;;
9522;SDS011;63165;43.016;25.784;2023-04-24T10:07:51;12.65;;;4.30;;
9522;SDS011;63165;43.016;25.784;2023-04-24T10:10:18;12.65;;;4.78;;
9522;SDS011;63165;43.016;25.784;2023-04-24T10:12:46;10.55;;;4.28;;
9522;SDS011;63165;43.016;25.784;2023-04-24T10:15:15;14.75;;;4.15;;
9522;SDS011;63165;43.016;25.784;2023-04-24T10:17:46;12.93;;;4.57;;
9522;SDS011;63165;43.016;25.784;2023-04-24T10:20:18;15.57;;;4.40;;
9522;SDS011;63165;43.016;25.784;2023-04-24T10:22:50;11.27;;;4.30;;
9522;SDS011;63165;43.016;25.784;2023-04-24T10:25:19;14.45;;;4.40;;
9522;SDS011;63165;43.016;25.784;2023-04-24T10:27:47;11.02;;;4.10;;
9522;SDS011;63165;43.016;25.784;2023-04-24T10:30:17;12.23;;;4.05;;
9522;SDS011;63165;43.016;25.784;2023-04-24T10:32:46;9.77;;;4.72;;
9522;SDS011;63165;43.016;25.784;2023-04-24T10:35:13;10.35;;;4.05;;
9522;SDS011;63165;43.016;25.784;2023-04-24T10:37:43;10.43;;;4.60;;
9522;SDS011;63165;43.016;25.784;2023-04-24T10:40:16;14.75;;;5.18;;
9522;SDS011;63165;43.016;25.784;2023-04-24T10:42:46;10.68;;;4.15;;
9522;SDS011;63165;43.016;25.784;2023-04-24T10:45:19;11.18;;;3.90;;
9522;SDS011;63165;43.016;25.784;2023-04-24T10:47:51;11.20;;;5.35;;
9522;SDS011;63165;43.016;25.784;2023-04-24T10:50:19;17.48;;;4.57;;
9522;SDS011;63165;43.016;25.784;2023-04-24T10:52:47;12.93;;;5.85;;
9522;SDS011;63165;43.016;25.784;2023-04-24T10:55:16;12.50;;;4.68;;
9522;SDS011;63165;43.016;25.784;2023-04-24T10:58:04;11.90;;;4.53;;
9522;SDS011;63165;43.016;25.784;2023-04-24T11:00:33;6.03;;;3.60;;
9522;SDS011;63165;43.016;25.784;2023-04-24T11:03:04;10.35;;;3.95;;
9522;SDS011;63165;43.016;25.784;2023-04-24T11:08:31;6.55;;;3.63;;
9522;SDS011;63165;43.016;25.784;2023-04-24T11:11:08;8.75;;;4.03;;
9522;SDS011;63165;43.016;25.784;2023-04-24T11:19:01;13.35;;;4.82;;
9522;SDS011;63165;43.016;25.784;2023-04-24T11:21:38;8.75;;;4.30;;
9522;SDS011;63165;43.016;25.784;2023-04-24T11:24:23;13.25;;;4.90;;
9522;SDS011;63165;43.016;25.784;2023-04-24T11:26:51;11.68;;;4.70;;
9522;SDS011;63165;43.016;25.784;2023-04-24T11:29:20;8.90;;;3.78;;
9522;SDS011;63165;43.016;25.784;2023-04-24T11:31:49;11.10;;;4.32;;
9522;SDS011;63165;43.016;25.784;2023-04-24T11:34:17;10.55;;;4.10;;
9522;SDS011;63165;43.016;25.784;2023-04-24T11:36:48;8.13;;;3.97;;
9522;SDS011;63165;43.016;25.784;2023-04-24T11:39:16;10.00;;;3.97;;
9522;SDS011;63165;43.016;25.784;2023-04-24T11:41:43;10.13;;;4.03;;
9522;SDS011;63165;43.016;25.784;2023-04-24T11:44:10;12.02;;;4.45;;
9522;SDS011;63165;43.016;25.784;2023-04-24T11:46:38;7.72;;;4.20;;
9522;SDS011;63165;43.016;25.784;2023-04-24T11:49:07;6.90;;;4.15;;
9522;SDS011;63165;43.016;25.784;2023-04-24T11:51:34;9.23;;;4.45;;
9522;SDS011;63165;43.016;25.784;2023-04-24T11:54:01;8.32;;;4.05;;
9522;SDS011;63165;43.016;25.784;2023-04-24T11:56:28;13.63;;;4.78;;
9522;SDS011;63165;43.016;25.784;2023-04-24T11:58:56;17.60;;;4.47;;
9522;SDS011;63165;43.016;25.784;2023-04-24T12:01:23;11.25;;;4.75;;
9522;SDS011;63165;43.016;25.784;2023-04-24T12:03:50;14.48;;;4.45;;
9522;SDS011;63165;43.016;25.784;2023-04-24T12:06:27;8.98;;;4.22;;
9522;SDS011;63165;43.016;25.784;2023-04-24T12:08:55;14.00;;;4.80;;
9522;SDS011;63165;43.016;25.784;2023-04-24T12:11:23;14.15;;;4.68;;
9522;SDS011;63165;43.016;25.784;2023-04-24T12:13:51;11.57;;;4.78;;
9522;SDS011;63165;43.016;25.784;2023-04-24T12:16:18;10.50;;;4.32;;
9522;SDS011;63165;43.016;25.784;2023-04-24T12:18:45;12.00;;;4.70;;
9522;SDS011;63165;43.016;25.784;2023-04-24T12:21:16;11.85;;;4.28;;
9522;SDS011;63165;43.016;25.784;2023-04-24T12:23:49;12.70;;;4.28;;
9522;SDS011;63165;43.016;25.784;2023-04-24T12:26:17;10.23;;;4.15;;
9522;SDS011;63165;43.016;25.784;2023-04-24T12:28:46;8.57;;;3.80;;
9522;SDS011;63165;43.016;25.784;2023-04-24T12:31:15;10.52;;;4.15;;
9522;SDS011;63165;43.016;25.784;2023-04-24T12:33:42;10.60;;;4.28;;
9522;SDS011;63165;43.016;25.784;2023-04-24T12:36:10;18.15;;;4.40;;
9522;SDS011;63165;43.016;25.784;2023-04-24T12:38:38;8.18;;;3.83;;
9522;SDS011;63165;43.016;25.784;2023-04-24T12:41:11;10.90;;;4.10;;
9522;SDS011;63165;43.016;25.784;2023-04-24T12:43:50;10.65;;;4.10;;
9522;SDS011;63165;43.016;25.784;2023-04-24T12:46:19;13.40;;;4.63;;
9522;SDS011;63165;43.016;25.784;2023-04-24T12:48:48;9.65;;;3.30;;
9522;SDS011;63165;43.016;25.784;2023-04-24T12:51:15;8.98;;;3.95;;
9522;SDS011;63165;43.016;25.784;2023-04-24T12:53:42;7.32;;;3.75;;
9522;SDS011;63165;43.016;25.784;2023-04-24T12:56:11;6.68;;;3.25;;
9522;SDS011;63165;43.016;25.784;2023-04-24T12:58:38;8.48;;;3.70;;
9522;SDS011;63165;43.016;25.784;2023-04-24T13:01:06;6.85;;;3.05;;
9522;SDS011;63165;43.016;25.784;2023-04-24T13:03:33;6.93;;;3.40;;
9522;SDS011;63165;43.016;25.784;2023-04-24T13:06:00;7.00;;;3.17;;
9522;SDS011;63165;43.016;25.784;2023-04-24T13:08:28;9.05;;;3.58;;
9522;SDS011;63165;43.016;25.784;2023-04-24T13:10:55;9.95;;;4.05;;
9522;SDS011;63165;43.016;25.784;2023-04-24T13:13:24;9.70;;;3.58;;
9522;SDS011;63165;43.016;25.784;2023-04-24T13:15:51;9.30;;;3.47;;
9522;SDS011;63165;43.016;25.784;2023-04-24T13:18:20;10.20;;;4.00;;
9522;SDS011;63165;43.016;25.784;2023-04-24T13:20:48;10.05;;;3.95;;
9522;SDS011;63165;43.016;25.784;2023-04-24T13:23:15;13.43;;;4.00;;
9522;SDS011;63165;43.016;25.784;2023-04-24T13:25:42;11.38;;;4.00;;
9522;SDS011;63165;43.016;25.784;2023-04-24T13:28:10;8.90;;;4.10;;
9522;SDS011;63165;43.016;25.784;2023-04-24T13:30:39;9.57;;;3.70;;
9522;SDS011;63165;43.016;25.784;2023-04-24T13:33:06;12.50;;;4.43;;
9522;SDS011;63165;43.016;25.784;2023-04-24T13:35:33;13.20;;;4.22;;
9522;SDS011;63165;43.016;25.784;2023-04-24T13:38:01;10.25;;;3.95;;
9522;SDS011;63165;43.016;25.784;2023-04-24T13:40:31;10.20;;;4.22;;
9522;SDS011;63165;43.016;25.784;2023-04-24T13:42:58;10.57;;;4.35;;
9522;SDS011;63165;43.016;25.784;2023-04-24T13:45:25;9.95;;;4.07;;
9522;SDS011;63165;43.016;25.784;2023-04-24T13:47:54;12.00;;;4.30;;
9522;SDS011;63165;43.016;25.784;2023-04-24T13:50:22;8.02;;;3.97;;
9522;SDS011;63165;43.016;25.784;2023-04-24T13:52:49;8.88;;;3.78;;
9522;SDS011;63165;43.016;25.784;2023-04-24T13:55:16;17.90;;;6.03;;
9522;SDS011;63165;43.016;25.784;2023-04-24T13:57:44;10.15;;;4.75;;
9522;SDS011;63165;43.016;25.784;2023-04-24T14:00:11;11.63;;;4.40;;
9522;SDS011;63165;43.016;25.784;2023-04-24T14:02:40;13.77;;;4.75;;
9522;SDS011;63165;43.016;25.784;2023-04-24T14:05:09;9.30;;;3.60;;
9522;SDS011;63165;43.016;25.784;2023-04-24T14:07:37;10.52;;;4.10;;
9522;SDS011;63165;43.016;25.784;2023-04-24T14:10:05;8.57;;;4.18;;
9522;SDS011;63165;43.016;25.784;2023-04-24T14:12:33;9.75;;;4.10;;
9522;SDS011;63165;43.016;25.784;2023-04-24T14:15:00;9.82;;;4.20;;
9522;SDS011;63165;43.016;25.784;2023-04-24T14:17:27;7.15;;;4.13;;
9522;SDS011;63165;43.016;25.784;2023-04-24T14:19:55;16.17;;;4.40;;
9522;SDS011;63165;43.016;25.784;2023-04-24T14:22:27;15.93;;;5.72;;
9522;SDS011;63165;43.016;25.784;2023-04-24T14:24:55;11.85;;;4.80;;
9522;SDS011;63165;43.016;25.784;2023-04-24T14:27:23;13.10;;;5.60;;
9522;SDS011;63165;43.016;25.784;2023-04-24T14:29:51;11.60;;;4.10;;
9522;SDS011;63165;43.016;25.784;2023-04-24T14:32:18;10.05;;;4.10;;
9522;SDS011;63165;43.016;25.784;2023-04-24T14:34:46;12.27;;;5.05;;
9522;SDS011;63165;43.016;25.784;2023-04-24T14:37:13;15.48;;;5.50;;
9522;SDS011;63165;43.016;25.784;2023-04-24T14:39:42;10.90;;;4.63;;
9522;SDS011;63165;43.016;25.784;2023-04-24T14:42:09;10.88;;;4.63;;
9522;SDS011;63165;43.016;25.784;2023-04-24T14:44:37;9.95;;;4.40;;
9522;SDS011;63165;43.016;25.784;2023-04-24T14:47:04;9.68;;;5.00;;
9522;SDS011;63165;43.016;25.784;2023-04-24T14:49:34;9.75;;;4.35;;
9522;SDS011;63165;43.016;25.784;2023-04-24T14:52:01;10.63;;;4.82;;
9522;SDS011;63165;43.016;25.784;2023-04-24T14:54:29;11.00;;;4.60;;